sensor_id;sensor_type;location;lat;lon;timestamp;P1;durP1;ratioP1;P2;durP2;ratioP2
17141;SDS011;32805;53.556;9.944;2024-01-15T00:01:29;7.57;;;1.77;;
17141;SDS011;32805;53.556;9.944;2024-01-15T00:03:58;14.35;;;1.92;;
17141;SDS011;32805;53.556;9.944;2024-01-15T00:06:26;6.25;;;1.70;;
17141;SDS011;32805;53.556;9.944;2024-01-15T00:08:55;7.05;;;1.85;;
17141;SDS011;32805;53.556;9.944;2024-01-15T00:11:24;7.25;;;2.45;;
17141;SDS011;32805;53.556;9.944;2024-01-15T00:13:51;6.85;;;1.13;;
17141;SDS011;32805;53.556;9.944;2024-01-15T00:16:19;11.85;;;1.90;;
17141;SDS011;32805;53.556;9.944;2024-01-15T00:18:46;3.50;;;1.17;;
17141;SDS011;32805;53.556;9.944;2024-01-15T00:21:15;7.95;;;1.75;;
17141;SDS011;32805;53.556;9.944;2024-01-15T00:23:43;7.78;;;1.73;;
17141;SDS011;32805;53.556;9.944;2024-01-15T00:26:11;9.48;;;1.30;;
17141;SDS011;32805;53.556;9.944;2024-01-15T00:28:39;10.05;;;1.60;;
17141;SDS011;32805;53.556;9.944;2024-01-15T00:31:06;12.13;;;2.00;;
17141;SDS011;32805;53.556;9.944;2024-01-15T00:33:34;10.75;;;2.58;;
17141;SDS011;32805;53.556;9.944;2024-01-15T00:36:02;9.30;;;2.03;;
17141;SDS011;32805;53.556;9.944;2024-01-15T00:38:31;9.65;;;1.52;;
17141;SDS011;32805;53.556;9.944;2024-01-15T00:40:59;6.28;;;2.03;;
17141;SDS011;32805;53.556;9.944;2024-01-15T00:43:26;4.45;;;1.63;;
17141;SDS011;32805;53.556;9.944;2024-01-15T00:45:54;9.80;;;2.15;;
17141;SDS011;32805;53.556;9.944;2024-01-15T00:48:21;10.25;;;1.88;;
17141;SDS011;32805;53.556;9.944;2024-01-15T00:50:49;7.00;;;2.55;;
17141;SDS011;32805;53.556;9.944;2024-01-15T00:53:17;5.40;;;2.00;;
17141;SDS011;32805;53.556;9.944;2024-01-15T00:55:47;13.00;;;2.13;;
17141;SDS011;32805;53.556;9.944;2024-01-15T00:58:15;10.20;;;1.90;;
17141;SDS011;32805;53.556;9.944;2024-01-15T01:00:42;8.38;;;3.00;;
17141;SDS011;32805;53.556;9.944;2024-01-15T01:03:10;11.18;;;1.80;;
17141;SDS011;32805;53.556;9.944;2024-01-15T01:05:37;5.90;;;1.50;;
17141;SDS011;32805;53.556;9.944;2024-01-15T01:08:05;9.27;;;1.73;;
17141;SDS011;32805;53.556;9.944;2024-01-15T01:10:32;13.35;;;2.33;;
17141;SDS011;32805;53.556;9.944;2024-01-15T01:13:01;11.90;;;1.77;;
17141;SDS011;32805;53.556;9.944;2024-01-15T01:15:29;7.25;;;2.00;;
17141;SDS011;32805;53.556;9.944;2024-01-15T01:17:56;10.60;;;1.35;;
17141;SDS011;32805;53.556;9.944;2024-01-15T01:20:24;9.10;;;1.63;;
17141;SDS011;32805;53.556;9.944;2024-01-15T01:22:51;11.32;;;2.05;;
17141;SDS011;32805;53.556;9.944;2024-01-15T01:25:19;10.13;;;1.73;;
17141;SDS011;32805;53.556;9.944;2024-01-15T01:27:47;9.68;;;1.73;;
17141;SDS011;32805;53.556;9.944;2024-01-15T01:30:16;9.85;;;2.00;;
17141;SDS011;32805;53.556;9.944;2024-01-15T01:32:43;10.55;;;1.92;;
17141;SDS011;32805;53.556;9.944;2024-01-15T01:35:11;10.77;;;1.45;;
17141;SDS011;32805;53.556;9.944;2024-01-15T01:37:39;9.43;;;2.15;;
17141;SDS011;32805;53.556;9.944;2024-01-15T01:40:07;8.15;;;1.85;;
17141;SDS011;32805;53.556;9.944;2024-01-15T01:42:35;9.98;;;1.92;;
17141;SDS011;32805;53.556;9.944;2024-01-15T01:45:03;4.78;;;1.73;;
17141;SDS011;32805;53.556;9.944;2024-01-15T01:47:32;10.70;;;1.67;;
17141;SDS011;32805;53.556;9.944;2024-01-15T01:49:59;4.25;;;1.30;;
17141;SDS011;32805;53.556;9.944;2024-01-15T01:52:27;8.45;;;1.60;;
17141;SDS011;32805;53.556;9.944;2024-01-15T01:54:55;9.60;;;1.88;;
17141;SDS011;32805;53.556;9.944;2024-01-15T01:57:23;7.35;;;1.25;;
17141;SDS011;32805;53.556;9.944;2024-01-15T01:59:50;10.07;;;2.35;;
17141;SDS011;32805;53.556;9.944;2024-01-15T02:02:18;8.40;;;2.22;;
17141;SDS011;32805;53.556;9.944;2024-01-15T02:04:47;10.57;;;2.03;;
17141;SDS011;32805;53.556;9.944;2024-01-15T02:07:15;6.90;;;1.40;;
17141;SDS011;32805;53.556;9.944;2024-01-15T02:09:44;5.88;;;1.75;;
17141;SDS011;32805;53.556;9.944;2024-01-15T02:12:12;4.75;;;1.55;;
17141;SDS011;32805;53.556;9.944;2024-01-15T02:14:39;7.38;;;1.75;;
17141;SDS011;32805;53.556;9.944;2024-01-15T02:17:07;3.67;;;1.35;;
17141;SDS011;32805;53.556;9.944;2024-01-15T02:19:34;6.88;;;1.42;;
17141;SDS011;32805;53.556;9.944;2024-01-15T02:22:03;4.38;;;1.05;;
17141;SDS011;32805;53.556;9.944;2024-01-15T02:24:32;6.82;;;1.60;;
17141;SDS011;32805;53.556;9.944;2024-01-15T02:27:00;9.90;;;1.23;;
17141;SDS011;32805;53.556;9.944;2024-01-15T02:29:27;6.28;;;1.45;;
17141;SDS011;32805;53.556;9.944;2024-01-15T02:31:55;5.88;;;1.10;;
17141;SDS011;32805;53.556;9.944;2024-01-15T02:34:22;3.85;;;1.02;;
17141;SDS011;32805;53.556;9.944;2024-01-15T02:36:50;11.05;;;1.75;;
17141;SDS011;32805;53.556;9.944;2024-01-15T02:39:17;6.93;;;1.60;;
17141;SDS011;32805;53.556;9.944;2024-01-15T02:41:46;6.65;;;1.25;;
17141;SDS011;32805;53.556;9.944;2024-01-15T02:44:14;16.50;;;2.25;;
17141;SDS011;32805;53.556;9.944;2024-01-15T02:46:41;8.18;;;1.80;;
17141;SDS011;32805;53.556;9.944;2024-01-15T02:49:08;5.80;;;1.55;;
17141;SDS011;32805;53.556;9.944;2024-01-15T02:51:36;4.68;;;1.35;;
17141;SDS011;32805;53.556;9.944;2024-01-15T02:54:04;7.93;;;1.65;;
17141;SDS011;32805;53.556;9.944;2024-01-15T02:56:31;9.98;;;1.70;;
17141;SDS011;32805;53.556;9.944;2024-01-15T02:59:00;13.95;;;1.65;;
17141;SDS011;32805;53.556;9.944;2024-01-15T03:01:27;11.50;;;1.73;;
17141;SDS011;32805;53.556;9.944;2024-01-15T03:03:55;10.65;;;1.63;;
17141;SDS011;32805;53.556;9.944;2024-01-15T03:06:23;7.65;;;1.38;;
17141;SDS011;32805;53.556;9.944;2024-01-15T03:08:51;4.90;;;1.95;;
17141;SDS011;32805;53.556;9.944;2024-01-15T03:11:19;4.93;;;1.15;;
17141;SDS011;32805;53.556;9.944;2024-01-15T03:13:46;5.72;;;2.33;;
17141;SDS011;32805;53.556;9.944;2024-01-15T03:16:15;3.42;;;1.63;;
17141;SDS011;32805;53.556;9.944;2024-01-15T03:18:42;4.55;;;1.50;;
17141;SDS011;32805;53.556;9.944;2024-01-15T03:21:10;8.07;;;1.50;;
17141;SDS011;32805;53.556;9.944;2024-01-15T03:23:38;6.07;;;1.50;;
17141;SDS011;32805;53.556;9.944;2024-01-15T03:26:05;8.48;;;1.92;;
17141;SDS011;32805;53.556;9.944;2024-01-15T03:28:33;6.00;;;1.42;;
17141;SDS011;32805;53.556;9.944;2024-01-15T03:31:00;8.40;;;1.42;;
17141;SDS011;32805;53.556;9.944;2024-01-15T03:33:29;7.13;;;1.85;;
17141;SDS011;32805;53.556;9.944;2024-01-15T03:35:57;7.10;;;1.40;;
17141;SDS011;32805;53.556;9.944;2024-01-15T03:38:27;7.15;;;2.05;;
17141;SDS011;32805;53.556;9.944;2024-01-15T03:40:54;10.13;;;1.77;;
17141;SDS011;32805;53.556;9.944;2024-01-15T03:43:22;8.43;;;2.03;;
17141;SDS011;32805;53.556;9.944;2024-01-15T03:45:49;7.97;;;1.77;;
17141;SDS011;32805;53.556;9.944;2024-01-15T03:48:17;10.45;;;2.47;;
17141;SDS011;32805;53.556;9.944;2024-01-15T03:50:46;16.10;;;3.60;;
17141;SDS011;32805;53.556;9.944;2024-01-15T03:53:13;9.18;;;2.10;;
17141;SDS011;32805;53.556;9.944;2024-01-15T03:55:40;12.05;;;2.70;;
17141;SDS011;32805;53.556;9.944;2024-01-15T03:58:08;9.82;;;2.13;;
17141;SDS011;32805;53.556;9.944;2024-01-15T04:00:35;12.10;;;1.83;;
17141;SDS011;32805;53.556;9.944;2024-01-15T04:03:03;14.77;;;2.33;;
17141;SDS011;32805;53.556;9.944;2024-01-15T04:05:30;18.50;;;2.97;;
17141;SDS011;32805;53.556;9.944;2024-01-15T04:07:59;13.50;;;2.67;;
17141;SDS011;32805;53.556;9.944;2024-01-15T04:10:27;18.92;;;2.20;;
17141;SDS011;32805;53.556;9.944;2024-01-15T04:12:54;14.02;;;1.85;;
17141;SDS011;32805;53.556;9.944;2024-01-15T04:15:22;7.38;;;2.08;;
17141;SDS011;32805;53.556;9.944;2024-01-15T04:17:49;14.07;;;1.95;;
17141;SDS011;32805;53.556;9.944;2024-01-15T04:20:17;15.23;;;2.08;;
17141;SDS011;32805;53.556;9.944;2024-01-15T04:22:48;17.08;;;3.10;;
17141;SDS011;32805;53.556;9.944;2024-01-15T04:25:16;13.32;;;2.63;;
17141;SDS011;32805;53.556;9.944;2024-01-15T04:27:44;13.07;;;1.88;;
17141;SDS011;32805;53.556;9.944;2024-01-15T04:30:12;11.10;;;2.05;;
17141;SDS011;32805;53.556;9.944;2024-01-15T04:32:40;8.15;;;1.80;;
17141;SDS011;32805;53.556;9.944;2024-01-15T04:35:07;13.15;;;2.47;;
17141;SDS011;32805;53.556;9.944;2024-01-15T04:37:35;11.43;;;2.50;;
17141;SDS011;32805;53.556;9.944;2024-01-15T04:40:02;13.23;;;2.85;;
17141;SDS011;32805;53.556;9.944;2024-01-15T04:42:31;10.30;;;2.85;;
17141;SDS011;32805;53.556;9.944;2024-01-15T04:44:59;23.33;;;2.70;;
17141;SDS011;32805;53.556;9.944;2024-01-15T04:47:26;11.25;;;2.08;;
17141;SDS011;32805;53.556;9.944;2024-01-15T04:49:54;18.65;;;2.20;;
17141;SDS011;32805;53.556;9.944;2024-01-15T04:52:22;9.75;;;2.08;;
17141;SDS011;32805;53.556;9.944;2024-01-15T04:54:49;10.68;;;2.08;;
17141;SDS011;32805;53.556;9.944;2024-01-15T04:57:17;11.02;;;1.90;;
17141;SDS011;32805;53.556;9.944;2024-01-15T04:59:45;9.20;;;1.95;;
17141;SDS011;32805;53.556;9.944;2024-01-15T05:02:13;11.10;;;2.03;;
17141;SDS011;32805;53.556;9.944;2024-01-15T05:04:40;11.23;;;2.65;;
17141;SDS011;32805;53.556;9.944;2024-01-15T05:07:08;14.52;;;2.22;;
17141;SDS011;32805;53.556;9.944;2024-01-15T05:09:36;14.15;;;2.33;;
17141;SDS011;32805;53.556;9.944;2024-01-15T05:12:03;11.10;;;2.60;;
17141;SDS011;32805;53.556;9.944;2024-01-15T05:14:31;7.00;;;1.65;;
17141;SDS011;32805;53.556;9.944;2024-01-15T05:17:00;12.77;;;2.35;;
17141;SDS011;32805;53.556;9.944;2024-01-15T05:19:27;8.23;;;1.75;;
17141;SDS011;32805;53.556;9.944;2024-01-15T05:21:55;8.45;;;1.80;;
17141;SDS011;32805;53.556;9.944;2024-01-15T05:24:23;9.85;;;1.80;;
17141;SDS011;32805;53.556;9.944;2024-01-15T05:26:52;11.05;;;1.90;;
17141;SDS011;32805;53.556;9.944;2024-01-15T05:29:20;10.80;;;1.90;;
17141;SDS011;32805;53.556;9.944;2024-01-15T05:31:47;7.43;;;1.95;;
17141;SDS011;32805;53.556;9.944;2024-01-15T05:34:16;10.00;;;1.75;;
17141;SDS011;32805;53.556;9.944;2024-01-15T05:36:43;15.68;;;2.42;;
17141;SDS011;32805;53.556;9.944;2024-01-15T05:39:14;6.95;;;2.15;;
17141;SDS011;32805;53.556;9.944;2024-01-15T05:41:41;13.07;;;2.35;;
17141;SDS011;32805;53.556;9.944;2024-01-15T05:44:09;10.43;;;1.80;;
17141;SDS011;32805;53.556;9.944;2024-01-15T05:46:36;13.77;;;2.25;;
17141;SDS011;32805;53.556;9.944;2024-01-15T05:49:04;15.00;;;2.95;;
17141;SDS011;32805;53.556;9.944;2024-01-15T05:51:33;10.93;;;2.15;;
17141;SDS011;32805;53.556;9.944;2024-01-15T05:54:00;13.45;;;3.08;;
17141;SDS011;32805;53.556;9.944;2024-01-15T05:56:28;9.95;;;2.25;;
17141;SDS011;32805;53.556;9.944;2024-01-15T05:58:55;11.02;;;2.20;;
17141;SDS011;32805;53.556;9.944;2024-01-15T06:01:23;11.13;;;2.20;;
17141;SDS011;32805;53.556;9.944;2024-01-15T06:03:50;15.95;;;2.38;;
17141;SDS011;32805;53.556;9.944;2024-01-15T06:06:18;12.90;;;1.75;;
17141;SDS011;32805;53.556;9.944;2024-01-15T06:08:47;12.32;;;2.40;;
17141;SDS011;32805;53.556;9.944;2024-01-15T06:11:15;7.15;;;2.05;;
17141;SDS011;32805;53.556;9.944;2024-01-15T06:13:42;11.40;;;1.77;;
17141;SDS011;32805;53.556;9.944;2024-01-15T06:16:13;10.88;;;2.22;;
17141;SDS011;32805;53.556;9.944;2024-01-15T06:18:41;10.00;;;2.53;;
17141;SDS011;32805;53.556;9.944;2024-01-15T06:21:09;12.23;;;2.90;;
17141;SDS011;32805;53.556;9.944;2024-01-15T06:23:37;12.15;;;2.10;;
17141;SDS011;32805;53.556;9.944;2024-01-15T06:26:05;11.50;;;2.70;;
17141;SDS011;32805;53.556;9.944;2024-01-15T06:28:33;16.08;;;2.55;;
17141;SDS011;32805;53.556;9.944;2024-01-15T06:31:00;10.90;;;2.47;;
17141;SDS011;32805;53.556;9.944;2024-01-15T06:33:28;13.57;;;2.35;;
17141;SDS011;32805;53.556;9.944;2024-01-15T06:35:56;8.75;;;2.00;;
17141;SDS011;32805;53.556;9.944;2024-01-15T06:38:23;7.25;;;1.63;;
17141;SDS011;32805;53.556;9.944;2024-01-15T06:40:51;16.33;;;2.80;;
17141;SDS011;32805;53.556;9.944;2024-01-15T06:43:21;11.38;;;1.83;;
17141;SDS011;32805;53.556;9.944;2024-01-15T06:45:48;16.23;;;2.35;;
17141;SDS011;32805;53.556;9.944;2024-01-15T06:48:16;17.98;;;3.22;;
17141;SDS011;32805;53.556;9.944;2024-01-15T06:50:43;12.40;;;2.45;;
17141;SDS011;32805;53.556;9.944;2024-01-15T06:53:11;6.65;;;2.08;;
17141;SDS011;32805;53.556;9.944;2024-01-15T06:55:38;15.27;;;2.13;;
17141;SDS011;32805;53.556;9.944;2024-01-15T06:58:06;10.50;;;1.77;;
17141;SDS011;32805;53.556;9.944;2024-01-15T07:00:35;8.20;;;1.90;;
17141;SDS011;32805;53.556;9.944;2024-01-15T07:03:02;14.18;;;2.25;;
17141;SDS011;32805;53.556;9.944;2024-01-15T07:05:30;9.63;;;2.00;;
17141;SDS011;32805;53.556;9.944;2024-01-15T07:07:58;10.38;;;1.65;;
17141;SDS011;32805;53.556;9.944;2024-01-15T07:10:26;16.20;;;2.35;;
17141;SDS011;32805;53.556;9.944;2024-01-15T07:12:54;6.22;;;1.77;;
17141;SDS011;32805;53.556;9.944;2024-01-15T07:15:21;6.68;;;1.55;;
17141;SDS011;32805;53.556;9.944;2024-01-15T07:17:50;8.43;;;1.98;;
17141;SDS011;32805;53.556;9.944;2024-01-15T07:20:18;13.13;;;2.28;;
17141;SDS011;32805;53.556;9.944;2024-01-15T07:22:46;8.88;;;1.40;;
17141;SDS011;32805;53.556;9.944;2024-01-15T07:25:13;9.15;;;1.90;;
17141;SDS011;32805;53.556;9.944;2024-01-15T07:27:41;7.25;;;1.58;;
17141;SDS011;32805;53.556;9.944;2024-01-15T07:30:11;11.02;;;1.73;;
17141;SDS011;32805;53.556;9.944;2024-01-15T07:32:39;7.68;;;2.00;;
17141;SDS011;32805;53.556;9.944;2024-01-15T07:35:08;12.50;;;2.10;;
17141;SDS011;32805;53.556;9.944;2024-01-15T07:37:36;10.10;;;2.28;;
17141;SDS011;32805;53.556;9.944;2024-01-15T07:40:04;10.27;;;1.60;;
17141;SDS011;32805;53.556;9.944;2024-01-15T07:42:34;5.88;;;1.63;;
17141;SDS011;32805;53.556;9.944;2024-01-15T07:45:02;8.13;;;1.65;;
17141;SDS011;32805;53.556;9.944;2024-01-15T07:47:30;6.20;;;1.70;;
17141;SDS011;32805;53.556;9.944;2024-01-15T07:49:57;5.50;;;1.38;;
17141;SDS011;32805;53.556;9.944;2024-01-15T07:52:32;9.10;;;1.70;;
17141;SDS011;32805;53.556;9.944;2024-01-15T07:55:00;12.68;;;2.13;;
17141;SDS011;32805;53.556;9.944;2024-01-15T07:57:30;8.70;;;1.25;;
17141;SDS011;32805;53.556;9.944;2024-01-15T07:59:57;9.88;;;1.58;;
17141;SDS011;32805;53.556;9.944;2024-01-15T08:02:25;3.72;;;1.30;;
17141;SDS011;32805;53.556;9.944;2024-01-15T08:04:52;9.77;;;1.38;;
17141;SDS011;32805;53.556;9.944;2024-01-15T08:07:20;6.82;;;1.23;;
17141;SDS011;32805;53.556;9.944;2024-01-15T08:09:49;7.78;;;1.95;;
17141;SDS011;32805;53.556;9.944;2024-01-15T08:12:17;3.55;;;0.98;;
17141;SDS011;32805;53.556;9.944;2024-01-15T08:14:47;9.23;;;1.48;;
17141;SDS011;32805;53.556;9.944;2024-01-15T08:17:15;10.95;;;2.08;;
17141;SDS011;32805;53.556;9.944;2024-01-15T08:19:42;4.88;;;1.38;;
17141;SDS011;32805;53.556;9.944;2024-01-15T08:22:10;8.57;;;1.42;;
17141;SDS011;32805;53.556;9.944;2024-01-15T08:24:38;8.32;;;1.23;;
17141;SDS011;32805;53.556;9.944;2024-01-15T08:27:07;5.55;;;1.35;;
17141;SDS011;32805;53.556;9.944;2024-01-15T08:29:35;8.32;;;1.35;;
17141;SDS011;32805;53.556;9.944;2024-01-15T08:32:03;6.78;;;1.48;;
17141;SDS011;32805;53.556;9.944;2024-01-15T08:34:31;5.45;;;1.77;;
17141;SDS011;32805;53.556;9.944;2024-01-15T08:36:59;2.72;;;1.00;;
17141;SDS011;32805;53.556;9.944;2024-01-15T08:39:26;8.85;;;1.63;;
17141;SDS011;32805;53.556;9.944;2024-01-15T08:41:54;3.20;;;0.90;;
17141;SDS011;32805;53.556;9.944;2024-01-15T08:44:23;8.35;;;1.55;;
17141;SDS011;32805;53.556;9.944;2024-01-15T08:46:50;9.80;;;3.08;;
17141;SDS011;32805;53.556;9.944;2024-01-15T08:49:18;6.60;;;1.50;;
17141;SDS011;32805;53.556;9.944;2024-01-15T08:51:46;4.65;;;1.58;;
17141;SDS011;32805;53.556;9.944;2024-01-15T08:54:14;6.65;;;1.30;;
17141;SDS011;32805;53.556;9.944;2024-01-15T08:56:42;6.97;;;2.00;;
17141;SDS011;32805;53.556;9.944;2024-01-15T08:59:09;7.78;;;1.70;;
17141;SDS011;32805;53.556;9.944;2024-01-15T09:01:39;7.32;;;1.90;;
17141;SDS011;32805;53.556;9.944;2024-01-15T09:04:06;5.53;;;1.70;;
17141;SDS011;32805;53.556;9.944;2024-01-15T09:06:34;7.03;;;1.70;;
17141;SDS011;32805;53.556;9.944;2024-01-15T09:09:02;6.05;;;1.77;;
17141;SDS011;32805;53.556;9.944;2024-01-15T09:11:30;6.82;;;2.22;;
17141;SDS011;32805;53.556;9.944;2024-01-15T09:13:58;2.55;;;1.25;;
17141;SDS011;32805;53.556;9.944;2024-01-15T09:16:26;8.93;;;1.70;;
17141;SDS011;32805;53.556;9.944;2024-01-15T09:18:55;4.82;;;1.25;;
17141;SDS011;32805;53.556;9.944;2024-01-15T09:21:24;9.00;;;2.03;;
17141;SDS011;32805;53.556;9.944;2024-01-15T09:23:51;6.72;;;2.05;;
17141;SDS011;32805;53.556;9.944;2024-01-15T09:26:19;7.70;;;1.90;;
17141;SDS011;32805;53.556;9.944;2024-01-15T09:28:46;4.70;;;1.52;;
17141;SDS011;32805;53.556;9.944;2024-01-15T09:31:14;5.60;;;1.48;;
17141;SDS011;32805;53.556;9.944;2024-01-15T09:33:43;4.15;;;1.38;;
17141;SDS011;32805;53.556;9.944;2024-01-15T09:36:13;5.45;;;1.60;;
17141;SDS011;32805;53.556;9.944;2024-01-15T09:38:40;4.78;;;1.55;;
17141;SDS011;32805;53.556;9.944;2024-01-15T09:41:08;4.97;;;1.30;;
17141;SDS011;32805;53.556;9.944;2024-01-15T09:43:36;5.45;;;1.50;;
17141;SDS011;32805;53.556;9.944;2024-01-15T09:46:04;3.53;;;1.85;;
17141;SDS011;32805;53.556;9.944;2024-01-15T09:48:31;5.03;;;1.75;;
17141;SDS011;32805;53.556;9.944;2024-01-15T09:51:01;5.35;;;1.35;;
17141;SDS011;32805;53.556;9.944;2024-01-15T09:53:30;8.27;;;2.15;;
17141;SDS011;32805;53.556;9.944;2024-01-15T09:55:58;9.43;;;1.70;;
17141;SDS011;32805;53.556;9.944;2024-01-15T09:58:25;4.93;;;1.25;;
17141;SDS011;32805;53.556;9.944;2024-01-15T10:00:55;5.32;;;1.42;;
17141;SDS011;32805;53.556;9.944;2024-01-15T10:03:23;9.50;;;1.60;;
17141;SDS011;32805;53.556;9.944;2024-01-15T10:05:51;7.55;;;1.67;;
17141;SDS011;32805;53.556;9.944;2024-01-15T10:08:18;3.60;;;1.30;;
17141;SDS011;32805;53.556;9.944;2024-01-15T10:10:47;4.40;;;1.30;;
17141;SDS011;32805;53.556;9.944;2024-01-15T10:13:15;4.95;;;1.20;;
17141;SDS011;32805;53.556;9.944;2024-01-15T10:15:45;3.25;;;1.20;;
17141;SDS011;32805;53.556;9.944;2024-01-15T10:18:13;5.57;;;1.23;;
17141;SDS011;32805;53.556;9.944;2024-01-15T10:20:40;5.05;;;0.93;;
17141;SDS011;32805;53.556;9.944;2024-01-15T10:23:08;4.88;;;1.20;;
17141;SDS011;32805;53.556;9.944;2024-01-15T10:25:36;3.60;;;1.30;;
17141;SDS011;32805;53.556;9.944;2024-01-15T10:28:05;2.47;;;1.27;;
17141;SDS011;32805;53.556;9.944;2024-01-15T10:30:33;7.35;;;2.72;;
17141;SDS011;32805;53.556;9.944;2024-01-15T10:33:01;3.95;;;1.77;;
17141;SDS011;32805;53.556;9.944;2024-01-15T10:35:29;3.53;;;1.65;;
17141;SDS011;32805;53.556;9.944;2024-01-15T10:37:57;1.95;;;1.63;;
17141;SDS011;32805;53.556;9.944;2024-01-15T10:40:24;4.38;;;1.48;;
17141;SDS011;32805;53.556;9.944;2024-01-15T10:42:52;5.72;;;1.52;;
17141;SDS011;32805;53.556;9.944;2024-01-15T10:45:21;4.10;;;1.35;;
17141;SDS011;32805;53.556;9.944;2024-01-15T10:47:49;2.25;;;1.25;;
17141;SDS011;32805;53.556;9.944;2024-01-15T10:50:16;1.38;;;0.75;;
17141;SDS011;32805;53.556;9.944;2024-01-15T10:52:44;3.22;;;1.50;;
17141;SDS011;32805;53.556;9.944;2024-01-15T10:55:12;2.13;;;1.30;;
17141;SDS011;32805;53.556;9.944;2024-01-15T10:57:45;4.88;;;1.73;;
17141;SDS011;32805;53.556;9.944;2024-01-15T11:00:15;2.08;;;1.35;;
17141;SDS011;32805;53.556;9.944;2024-01-15T11:02:45;2.50;;;1.25;;
17141;SDS011;32805;53.556;9.944;2024-01-15T11:05:13;1.80;;;1.40;;
17141;SDS011;32805;53.556;9.944;2024-01-15T11:07:40;2.42;;;1.05;;
17141;SDS011;32805;53.556;9.944;2024-01-15T11:10:10;4.38;;;1.08;;
17141;SDS011;32805;53.556;9.944;2024-01-15T11:12:58;4.72;;;1.70;;
17141;SDS011;32805;53.556;9.944;2024-01-15T11:15:26;2.30;;;1.20;;
17141;SDS011;32805;53.556;9.944;2024-01-15T11:18:00;3.13;;;1.60;;
17141;SDS011;32805;53.556;9.944;2024-01-15T11:20:30;2.78;;;1.55;;
17141;SDS011;32805;53.556;9.944;2024-01-15T11:22:58;2.50;;;1.75;;
17141;SDS011;32805;53.556;9.944;2024-01-15T11:25:34;3.28;;;1.80;;
17141;SDS011;32805;53.556;9.944;2024-01-15T11:28:01;2.67;;;1.77;;
17141;SDS011;32805;53.556;9.944;2024-01-15T11:30:29;2.05;;;1.65;;
17141;SDS011;32805;53.556;9.944;2024-01-15T11:32:59;3.45;;;2.33;;
17141;SDS011;32805;53.556;9.944;2024-01-15T11:35:39;3.97;;;2.70;;
17141;SDS011;32805;53.556;9.944;2024-01-15T11:38:26;3.42;;;2.50;;
17141;SDS011;32805;53.556;9.944;2024-01-15T11:40:53;5.30;;;2.63;;
17141;SDS011;32805;53.556;9.944;2024-01-15T11:43:21;4.47;;;2.25;;
17141;SDS011;32805;53.556;9.944;2024-01-15T11:45:51;2.88;;;2.33;;
17141;SDS011;32805;53.556;9.944;2024-01-15T11:48:19;3.53;;;2.35;;
17141;SDS011;32805;53.556;9.944;2024-01-15T11:50:51;2.38;;;2.10;;
17141;SDS011;32805;53.556;9.944;2024-01-15T11:53:26;3.78;;;2.10;;
17141;SDS011;32805;53.556;9.944;2024-01-15T11:55:57;3.15;;;2.40;;
17141;SDS011;32805;53.556;9.944;2024-01-15T11:58:25;4.38;;;2.55;;
17141;SDS011;32805;53.556;9.944;2024-01-15T12:00:53;3.95;;;2.20;;
17141;SDS011;32805;53.556;9.944;2024-01-15T12:03:22;5.28;;;2.45;;
17141;SDS011;32805;53.556;9.944;2024-01-15T12:05:51;5.22;;;2.45;;
17141;SDS011;32805;53.556;9.944;2024-01-15T12:08:22;5.47;;;2.90;;
17141;SDS011;32805;53.556;9.944;2024-01-15T12:10:50;3.75;;;1.80;;
17141;SDS011;32805;53.556;9.944;2024-01-15T12:13:18;3.63;;;2.03;;
17141;SDS011;32805;53.556;9.944;2024-01-15T12:15:46;3.22;;;1.50;;
17141;SDS011;32805;53.556;9.944;2024-01-15T12:18:15;3.50;;;1.60;;
17141;SDS011;32805;53.556;9.944;2024-01-15T12:20:44;2.92;;;1.60;;
17141;SDS011;32805;53.556;9.944;2024-01-15T12:23:15;3.53;;;1.83;;
17141;SDS011;32805;53.556;9.944;2024-01-15T12:25:43;2.05;;;1.58;;
17141;SDS011;32805;53.556;9.944;2024-01-15T12:28:11;2.13;;;1.30;;
17141;SDS011;32805;53.556;9.944;2024-01-15T12:30:38;2.58;;;1.65;;
17141;SDS011;32805;53.556;9.944;2024-01-15T12:33:06;4.80;;;1.92;;
17141;SDS011;32805;53.556;9.944;2024-01-15T12:35:36;2.92;;;1.98;;
17141;SDS011;32805;53.556;9.944;2024-01-15T12:38:04;2.83;;;1.90;;
17141;SDS011;32805;53.556;9.944;2024-01-15T12:40:33;3.83;;;2.35;;
17141;SDS011;32805;53.556;9.944;2024-01-15T12:43:03;3.22;;;2.00;;
17141;SDS011;32805;53.556;9.944;2024-01-15T12:45:31;5.13;;;2.00;;
17141;SDS011;32805;53.556;9.944;2024-01-15T12:47:59;5.90;;;2.20;;
17141;SDS011;32805;53.556;9.944;2024-01-15T12:50:27;2.40;;;1.92;;
17141;SDS011;32805;53.556;9.944;2024-01-15T12:52:55;4.63;;;2.13;;
17141;SDS011;32805;53.556;9.944;2024-01-15T12:55:22;2.92;;;2.00;;
17141;SDS011;32805;53.556;9.944;2024-01-15T12:57:51;3.45;;;2.50;;
17141;SDS011;32805;53.556;9.944;2024-01-15T13:00:21;3.65;;;2.65;;
17141;SDS011;32805;53.556;9.944;2024-01-15T13:02:49;3.55;;;2.30;;
17141;SDS011;32805;53.556;9.944;2024-01-15T13:05:17;2.50;;;2.28;;
17141;SDS011;32805;53.556;9.944;2024-01-15T13:07:45;3.78;;;2.80;;
17141;SDS011;32805;53.556;9.944;2024-01-15T13:10:13;2.92;;;2.35;;
17141;SDS011;32805;53.556;9.944;2024-01-15T13:12:40;3.03;;;2.42;;
17141;SDS011;32805;53.556;9.944;2024-01-15T13:15:10;4.28;;;3.13;;
17141;SDS011;32805;53.556;9.944;2024-01-15T13:17:40;5.65;;;3.08;;
17141;SDS011;32805;53.556;9.944;2024-01-15T13:20:09;3.40;;;2.97;;
17141;SDS011;32805;53.556;9.944;2024-01-15T13:22:37;4.53;;;3.10;;
17141;SDS011;32805;53.556;9.944;2024-01-15T13:25:07;6.20;;;3.20;;
17141;SDS011;32805;53.556;9.944;2024-01-15T13:27:35;4.72;;;2.40;;
17141;SDS011;32805;53.556;9.944;2024-01-15T13:30:05;3.58;;;2.50;;
17141;SDS011;32805;53.556;9.944;2024-01-15T13:32:36;4.40;;;3.00;;
17141;SDS011;32805;53.556;9.944;2024-01-15T13:35:04;4.28;;;3.28;;
17141;SDS011;32805;53.556;9.944;2024-01-15T13:37:34;3.15;;;2.85;;
17141;SDS011;32805;53.556;9.944;2024-01-15T13:40:03;4.45;;;2.50;;
17141;SDS011;32805;53.556;9.944;2024-01-15T13:42:33;7.32;;;3.35;;
17141;SDS011;32805;53.556;9.944;2024-01-15T13:45:01;3.95;;;2.83;;
17141;SDS011;32805;53.556;9.944;2024-01-15T13:47:29;3.17;;;2.67;;
17141;SDS011;32805;53.556;9.944;2024-01-15T13:49:58;3.40;;;2.45;;
17141;SDS011;32805;53.556;9.944;2024-01-15T13:52:26;3.88;;;2.50;;
17141;SDS011;32805;53.556;9.944;2024-01-15T13:54:54;3.45;;;2.60;;
17141;SDS011;32805;53.556;9.944;2024-01-15T13:57:22;3.22;;;2.60;;
17141;SDS011;32805;53.556;9.944;2024-01-15T13:59:49;7.53;;;3.20;;
17141;SDS011;32805;53.556;9.944;2024-01-15T14:02:17;5.45;;;2.50;;
17141;SDS011;32805;53.556;9.944;2024-01-15T14:04:48;4.05;;;2.65;;
17141;SDS011;32805;53.556;9.944;2024-01-15T14:07:17;2.25;;;2.00;;
17141;SDS011;32805;53.556;9.944;2024-01-15T14:09:44;3.10;;;2.13;;
17141;SDS011;32805;53.556;9.944;2024-01-15T14:12:12;3.20;;;2.25;;
17141;SDS011;32805;53.556;9.944;2024-01-15T14:14:39;3.15;;;2.13;;
17141;SDS011;32805;53.556;9.944;2024-01-15T14:17:07;3.70;;;2.72;;
17141;SDS011;32805;53.556;9.944;2024-01-15T14:19:34;4.85;;;2.78;;
17141;SDS011;32805;53.556;9.944;2024-01-15T14:22:03;3.17;;;2.67;;
17141;SDS011;32805;53.556;9.944;2024-01-15T14:24:32;3.17;;;2.85;;
17141;SDS011;32805;53.556;9.944;2024-01-15T14:26:59;3.08;;;2.40;;
17141;SDS011;32805;53.556;9.944;2024-01-15T14:29:26;4.28;;;2.72;;
17141;SDS011;32805;53.556;9.944;2024-01-15T14:31:54;3.15;;;2.63;;
17141;SDS011;32805;53.556;9.944;2024-01-15T14:34:22;4.40;;;2.55;;
17141;SDS011;32805;53.556;9.944;2024-01-15T14:36:51;5.75;;;2.97;;
17141;SDS011;32805;53.556;9.944;2024-01-15T14:39:21;3.38;;;2.92;;
17141;SDS011;32805;53.556;9.944;2024-01-15T14:41:50;3.72;;;3.25;;
17141;SDS011;32805;53.556;9.944;2024-01-15T14:44:17;5.43;;;3.50;;
17141;SDS011;32805;53.556;9.944;2024-01-15T14:46:45;4.85;;;3.08;;
17141;SDS011;32805;53.556;9.944;2024-01-15T14:49:13;3.13;;;2.83;;